createdAt,value
2019-06-20T00:00:48.415Z,19.06
2019-06-20T00:03:54.852Z,19.06
2019-06-20T00:07:01.217Z,19.10
2019-06-20T00:10:07.995Z,18.94
2019-06-20T00:13:14.392Z,18.92
2019-06-20T00:16:21.008Z,18.92
2019-06-20T00:19:27.473Z,18.97
2019-06-20T00:22:33.840Z,18.97
2019-06-20T00:25:41.354Z,18.81
2019-06-20T00:28:47.773Z,18.73
2019-06-20T00:31:54.305Z,18.56
2019-06-20T00:35:00.941Z,18.44
2019-06-20T00:38:07.351Z,18.51
2019-06-20T00:41:13.791Z,18.29
2019-06-20T00:44:20.160Z,18.25
2019-06-20T00:47:26.695Z,18.10
2019-06-20T00:50:33.101Z,18.10
2019-06-20T00:53:39.763Z,17.98
2019-06-20T00:56:46.272Z,18.02
2019-06-20T00:59:52.631Z,17.97
2019-06-20T01:02:59.051Z,17.78
2019-06-20T01:06:05.597Z,17.75
2019-06-20T01:09:12.054Z,17.74
2019-06-20T01:12:18.845Z,17.72
2019-06-20T01:15:25.224Z,17.70
2019-06-20T01:18:31.572Z,17.60
2019-06-20T01:21:37.945Z,17.55
2019-06-20T01:24:44.412Z,17.44
2019-06-20T01:27:50.681Z,17.43
2019-06-20T01:30:57.105Z,17.50
2019-06-20T01:34:03.712Z,17.44
2019-06-20T01:37:10.126Z,17.35
2019-06-20T01:40:16.522Z,17.35
2019-06-20T01:43:22.969Z,17.34
2019-06-20T01:46:29.537Z,17.30
2019-06-20T01:49:35.974Z,17.23
2019-06-20T01:52:42.434Z,17.26
2019-06-20T01:55:49.022Z,17.22
2019-06-20T01:58:55.566Z,17.23
2019-06-20T02:02:02.176Z,17.28
2019-06-20T02:05:08.694Z,17.32
2019-06-20T02:08:16.529Z,17.33
2019-06-20T02:11:23.015Z,17.32
2019-06-20T02:14:29.696Z,17.26
2019-06-20T02:17:36.119Z,17.13
2019-06-20T02:20:49.490Z,17.09
2019-06-20T02:23:55.890Z,17.05
2019-06-20T02:27:02.429Z,16.96
2019-06-20T02:30:09.015Z,16.95
2019-06-20T02:33:15.454Z,16.95
2019-06-20T02:36:21.941Z,16.85
2019-06-20T02:39:28.408Z,16.85
2019-06-20T02:42:34.815Z,16.97
2019-06-20T02:45:41.405Z,16.80
2019-06-20T02:48:47.886Z,16.93
2019-06-20T02:51:54.671Z,16.99
2019-06-20T02:55:01.018Z,16.89
2019-06-20T02:58:07.718Z,16.89
2019-06-20T03:01:14.364Z,16.97
2019-06-20T03:04:21.079Z,17.07
2019-06-20T03:07:27.508Z,17.16
2019-06-20T03:10:33.996Z,17.12
2019-06-20T03:13:40.415Z,17.12
2019-06-20T03:16:47.298Z,17.03
2019-06-20T03:19:53.638Z,17.09
2019-06-20T03:23:00.314Z,17.10
2019-06-20T03:26:06.695Z,17.09
2019-06-20T03:29:13.118Z,17.18
2019-06-20T03:32:19.543Z,17.25
2019-06-20T03:35:25.982Z,17.32
2019-06-20T03:38:32.369Z,17.39
2019-06-20T03:41:39.456Z,17.42
2019-06-20T03:44:58.402Z,17.46
2019-06-20T03:47:54.110Z,17.55
2019-06-20T03:51:00.570Z,17.63
2019-06-20T03:54:07.014Z,17.67
2019-06-20T03:57:13.359Z,17.76
2019-06-20T04:00:23.665Z,17.77
2019-06-20T04:03:30.175Z,17.86
2019-06-20T04:06:36.621Z,17.89
2019-06-20T04:09:43.043Z,17.99
2019-06-20T04:12:49.530Z,18.01
2019-06-20T04:15:56.072Z,18.07
2019-06-20T04:19:04.026Z,18.14
2019-06-20T04:22:10.378Z,18.22
2019-06-20T04:25:16.823Z,18.28
2019-06-20T04:28:24.366Z,18.35
2019-06-20T04:31:30.784Z,18.42
2019-06-20T04:34:37.281Z,18.46
2019-06-20T04:37:44.025Z,18.51
2019-06-20T04:40:50.418Z,18.55
2019-06-20T04:43:56.781Z,18.62
2019-06-20T04:47:10.182Z,18.69
2019-06-20T04:50:16.609Z,18.73
2019-06-20T04:53:23.103Z,18.78
2019-06-20T04:56:29.577Z,18.84
2019-06-20T04:59:35.999Z,18.92
2019-06-20T05:02:42.567Z,18.97
2019-06-20T05:05:49.210Z,19.02
2019-06-20T05:08:55.818Z,19.08
2019-06-20T05:12:02.176Z,19.14
2019-06-20T05:15:08.761Z,19.22
2019-06-20T05:18:15.377Z,19.28
2019-06-20T05:21:22.510Z,19.37
2019-06-20T05:24:29.012Z,19.41
2019-06-20T05:27:35.396Z,19.45
2019-06-20T05:30:41.932Z,19.58
2019-06-20T05:33:48.389Z,19.66
2019-06-20T05:36:56.570Z,19.61
2019-06-20T05:40:03.092Z,19.83
2019-06-20T05:43:09.555Z,19.89
2019-06-20T05:46:16.077Z,19.86
2019-06-20T05:49:22.630Z,20.00
2019-06-20T05:52:29.121Z,20.10
2019-06-20T05:55:35.708Z,20.23
2019-06-20T05:58:42.255Z,20.25
2019-06-20T06:01:48.592Z,20.37
2019-06-20T06:04:55.241Z,20.44
2019-06-20T06:08:01.781Z,20.55
2019-06-20T06:11:08.437Z,20.62
2019-06-20T06:14:14.852Z,20.77
2019-06-20T06:17:22.385Z,20.85
2019-06-20T06:20:28.862Z,20.88
2019-06-20T06:23:35.551Z,21.08
2019-06-20T06:26:41.959Z,21.17
2019-06-20T06:29:48.601Z,21.27
2019-06-20T06:32:56.020Z,21.36
2019-06-20T06:36:02.541Z,21.37
2019-06-20T06:39:09.772Z,21.44
2019-06-20T06:42:16.405Z,21.74
2019-06-20T06:45:23.060Z,21.93
2019-06-20T06:48:29.556Z,21.81
2019-06-20T06:51:38.208Z,21.81
2019-06-20T06:54:44.156Z,21.89
2019-06-20T06:57:50.682Z,22.06
2019-06-20T07:00:57.154Z,22.05
2019-06-20T07:04:03.502Z,22.01
2019-06-20T07:07:10.164Z,22.06
2019-06-20T07:10:16.992Z,22.06
2019-06-20T07:13:23.369Z,22.30
2019-06-20T07:16:30.097Z,22.45
2019-06-20T07:19:36.643Z,22.52
2019-06-20T07:22:43.183Z,22.61
2019-06-20T07:25:50.380Z,22.68
2019-06-20T07:28:56.718Z,22.73
2019-06-20T07:32:04.681Z,22.86
2019-06-20T07:35:11.379Z,22.91
2019-06-20T07:38:17.727Z,23.08
2019-06-20T07:41:24.196Z,23.34
2019-06-20T07:44:30.643Z,23.85
2019-06-20T07:47:37.198Z,23.98
2019-06-20T07:50:43.741Z,24.21
2019-06-20T07:53:52.634Z,24.11
2019-06-20T07:56:59.081Z,24.12
2019-06-20T08:00:06.849Z,24.62
2019-06-20T08:03:13.337Z,24.50
2019-06-20T08:06:19.775Z,24.93
2019-06-20T08:09:43.876Z,25.18
2019-06-20T08:12:35.795Z,25.13
2019-06-20T08:15:42.307Z,25.09
2019-06-20T08:18:48.755Z,25.06
2019-06-20T08:21:55.250Z,25.21
2019-06-20T08:25:01.638Z,25.12
2019-06-20T08:28:08.478Z,25.20
2019-06-20T08:31:14.935Z,25.38
2019-06-20T08:34:21.397Z,25.70
2019-06-20T08:37:28.271Z,25.61
2019-06-20T08:40:40.049Z,25.61
2019-06-20T08:43:46.639Z,25.50
2019-06-20T08:46:53.101Z,25.50
2019-06-20T08:49:59.846Z,25.33
2019-06-20T08:53:07.518Z,25.57
2019-06-20T08:56:14.061Z,25.72
2019-06-20T08:59:24.824Z,25.58
2019-06-20T09:02:29.325Z,25.74
2019-06-20T09:05:37.330Z,25.67
2019-06-20T09:08:45.204Z,25.65
2019-06-20T09:11:54.087Z,25.56
2019-06-20T09:15:03.292Z,25.56
2019-06-20T09:18:12.520Z,25.59
2019-06-20T09:21:20.349Z,25.61
2019-06-20T09:24:28.539Z,25.79
2019-06-20T09:27:36.611Z,25.51
2019-06-20T09:30:44.830Z,25.62
2019-06-20T09:33:53.809Z,25.93
2019-06-20T09:37:01.749Z,25.73
2019-06-20T09:40:10.032Z,25.73
2019-06-20T09:43:27.107Z,25.74
2019-06-20T09:46:27.585Z,25.80
2019-06-20T09:49:35.745Z,26.07
2019-06-20T09:52:43.829Z,25.93
2019-06-20T09:55:51.964Z,26.09
2019-06-20T09:58:59.884Z,26.33
2019-06-20T10:02:07.768Z,26.35
2019-06-20T10:05:17.923Z,26.15
2019-06-20T10:08:25.857Z,26.50
2019-06-20T10:11:33.653Z,26.55
2019-06-20T10:14:42.126Z,26.51
2019-06-20T10:17:50.110Z,26.74
2019-06-20T10:20:57.896Z,26.55
2019-06-20T10:24:05.830Z,26.65
2019-06-20T10:27:13.750Z,26.87
2019-06-20T10:30:22.142Z,26.86
2019-06-20T10:33:30.420Z,27.02
2019-06-20T10:36:38.330Z,27.13
2019-06-20T10:39:46.292Z,27.04
2019-06-20T10:42:54.395Z,27.56
2019-06-20T10:46:19.088Z,27.26
2019-06-20T10:49:25.543Z,27.34
2019-06-20T10:52:32.885Z,27.40
2019-06-20T10:55:41.461Z,27.68
2019-06-20T10:58:48.443Z,27.63
2019-06-20T11:01:54.790Z,27.60
2019-06-20T11:05:01.772Z,27.63
2019-06-20T11:08:08.390Z,27.69
2019-06-20T11:11:14.845Z,27.70
2019-06-20T11:14:21.292Z,27.56
2019-06-20T11:17:27.882Z,27.71
2019-06-20T11:20:34.483Z,27.65
2019-06-20T11:23:41.319Z,27.82
2019-06-20T11:26:48.012Z,27.82
2019-06-20T11:29:54.428Z,27.85
2019-06-20T11:33:00.934Z,28.04
2019-06-20T11:36:07.945Z,28.14
2019-06-20T11:39:14.284Z,28.04
2019-06-20T11:42:20.737Z,28.47
2019-06-20T11:45:27.338Z,28.50
2019-06-20T11:48:35.184Z,28.76
2019-06-20T11:51:41.937Z,28.76
2019-06-20T11:54:48.415Z,28.53
2019-06-20T11:57:54.884Z,28.65
2019-06-20T12:01:04.149Z,28.62
2019-06-20T12:04:10.753Z,28.38
2019-06-20T12:07:17.295Z,28.11
2019-06-20T12:10:24.227Z,28.88
2019-06-20T12:13:30.669Z,28.50
2019-06-20T12:16:39.160Z,28.55
2019-06-20T12:19:46.765Z,29.38
2019-06-20T12:22:53.240Z,28.73
2019-06-20T12:25:59.710Z,28.88
2019-06-20T12:29:06.194Z,28.90
2019-06-20T12:32:12.667Z,29.06
2019-06-20T12:35:19.254Z,29.84
2019-06-20T12:38:25.777Z,29.68
2019-06-20T12:41:33.182Z,30.46
2019-06-20T12:44:40.078Z,30.27
2019-06-20T12:47:46.756Z,29.85
2019-06-20T12:50:53.168Z,30.55
2019-06-20T12:53:59.566Z,29.94
2019-06-20T12:57:06.400Z,29.60
2019-06-20T13:00:14.360Z,29.81
2019-06-20T13:03:20.729Z,29.73
2019-06-20T13:06:27.959Z,29.11
2019-06-20T13:09:34.427Z,28.38
2019-06-20T13:12:42.692Z,27.97
2019-06-20T13:15:49.443Z,27.48
2019-06-20T13:18:55.874Z,27.13
2019-06-20T13:22:02.538Z,27.13
2019-06-20T13:25:09.387Z,27.10
2019-06-20T13:28:15.863Z,26.77
2019-06-20T13:31:22.315Z,26.83
2019-06-20T13:34:28.802Z,26.71
2019-06-20T13:37:35.355Z,26.62
2019-06-20T13:41:08.510Z,26.26
2019-06-20T13:44:17.621Z,26.26
2019-06-20T13:47:24.147Z,26.06
2019-06-20T13:50:30.681Z,26.02
2019-06-20T13:53:39.089Z,25.90
2019-06-20T13:56:45.603Z,25.67
2019-06-20T13:59:52.911Z,25.74
2019-06-20T14:03:02.642Z,25.59
2019-06-20T14:06:09.099Z,25.54
2019-06-20T14:09:15.727Z,25.43
2019-06-20T14:12:22.293Z,25.61
2019-06-20T14:15:28.775Z,25.48
2019-06-20T14:18:36.660Z,25.49
2019-06-20T14:21:47.222Z,25.42
2019-06-20T14:24:53.843Z,25.28
2019-06-20T14:28:00.410Z,25.41
2019-06-20T14:31:06.907Z,25.29
2019-06-20T14:34:13.579Z,25.25
2019-06-20T14:37:22.816Z,25.28
2019-06-20T14:40:29.347Z,25.25
2019-06-20T14:43:37.703Z,25.32
2019-06-20T14:46:44.187Z,25.18
2019-06-20T14:49:53.717Z,25.29
2019-06-20T14:53:00.825Z,25.29
2019-06-20T14:56:07.419Z,25.60
2019-06-20T14:59:13.857Z,25.42
2019-06-20T15:02:37.203Z,25.30
2019-06-20T15:05:34.081Z,25.25
2019-06-20T15:08:39.034Z,25.23
2019-06-20T15:11:46.505Z,25.20
2019-06-20T15:14:53.508Z,25.19
2019-06-20T15:17:59.937Z,25.09
2019-06-20T15:21:06.427Z,25.20
2019-06-20T15:24:12.863Z,25.30
2019-06-20T15:27:19.549Z,25.30
2019-06-20T15:30:26.031Z,25.44
2019-06-20T15:33:32.508Z,25.52
2019-06-20T15:36:38.951Z,25.56
2019-06-20T15:39:46.685Z,25.53
2019-06-20T15:42:55.337Z,25.82
2019-06-20T15:46:02.005Z,26.04
2019-06-20T15:49:16.170Z,26.37
2019-06-20T15:52:16.575Z,26.74
2019-06-20T15:55:23.555Z,26.78
2019-06-20T15:58:30.456Z,26.69
2019-06-20T16:01:36.881Z,26.78
2019-06-20T16:04:43.330Z,26.96
2019-06-20T16:07:49.922Z,26.72
2019-06-20T16:10:56.278Z,27.13
2019-06-20T16:14:03.390Z,26.74
2019-06-20T16:17:10.149Z,26.81
2019-06-20T16:20:18.416Z,26.90
2019-06-20T16:23:24.899Z,26.76
2019-06-20T16:26:31.280Z,26.56
2019-06-20T16:29:37.964Z,26.73
2019-06-20T16:32:44.459Z,26.91
2019-06-20T16:35:51.095Z,27.01
2019-06-20T16:38:57.531Z,27.07
2019-06-20T16:42:05.097Z,26.91
2019-06-20T16:45:12.102Z,27.07
2019-06-20T16:48:19.135Z,26.62
2019-06-20T16:51:25.576Z,26.89
2019-06-20T16:54:32.565Z,26.69
2019-06-20T16:57:39.312Z,26.69
2019-06-20T17:00:45.776Z,26.64
2019-06-20T17:03:52.112Z,26.80
2019-06-20T17:06:58.636Z,26.81
2019-06-20T17:10:06.544Z,26.80
2019-06-20T17:13:13.235Z,26.57
2019-06-20T17:16:19.664Z,26.73
2019-06-20T17:19:26.163Z,26.70
2019-06-20T17:22:32.667Z,26.45
2019-06-20T17:25:39.236Z,26.55
2019-06-20T17:28:45.706Z,26.55
2019-06-20T17:31:52.434Z,26.41
2019-06-20T17:34:58.924Z,26.32
2019-06-20T17:38:05.567Z,26.18
2019-06-20T17:41:11.998Z,26.18
2019-06-20T17:44:19.639Z,26.13
2019-06-20T17:47:26.486Z,26.09
2019-06-20T17:52:16.195Z,25.85
2019-06-20T17:53:49.632Z,25.86
2019-06-20T17:56:55.245Z,25.91
2019-06-20T18:00:02.721Z,25.73
2019-06-20T18:03:09.241Z,25.63
2019-06-20T18:06:15.761Z,25.48
2019-06-20T18:09:22.407Z,25.37
2019-06-20T18:12:28.935Z,25.34
2019-06-20T18:15:35.393Z,25.08
2019-06-20T18:18:41.809Z,25.00
2019-06-20T18:21:48.174Z,24.68
2019-06-20T18:24:54.668Z,24.53
2019-06-20T18:28:01.143Z,24.42
2019-06-20T18:31:07.595Z,24.07
2019-06-20T18:34:29.223Z,24.07
2019-06-20T18:37:31.445Z,24.12
2019-06-20T18:40:30.580Z,23.84
2019-06-20T18:43:36.921Z,23.68
2019-06-20T18:46:43.712Z,23.76
2019-06-20T18:49:50.242Z,23.66
2019-06-20T18:52:57.089Z,23.45
2019-06-20T18:56:03.520Z,23.40
2019-06-20T18:59:11.047Z,23.38
2019-06-20T19:02:20.329Z,23.23
2019-06-20T19:05:26.858Z,23.02
2019-06-20T19:08:33.372Z,23.04
2019-06-20T19:11:39.797Z,23.12
2019-06-20T19:14:47.822Z,22.99
2019-06-20T19:17:54.312Z,22.79
2019-06-20T19:21:00.711Z,22.77
2019-06-20T19:24:08.173Z,22.54
2019-06-20T19:27:14.683Z,22.57
2019-06-20T19:30:26.099Z,22.40
2019-06-20T19:33:32.645Z,22.47
2019-06-20T19:36:40.138Z,22.49
2019-06-20T19:39:46.739Z,22.29
2019-06-20T19:42:53.470Z,22.33
2019-06-20T19:45:59.872Z,22.26
2019-06-20T19:49:06.662Z,22.17
2019-06-20T19:52:13.328Z,21.95
2019-06-20T19:55:19.934Z,22.02
2019-06-20T19:58:26.428Z,22.09
2019-06-20T20:01:34.117Z,21.90
2019-06-20T20:04:40.581Z,21.95
2019-06-20T20:07:47.093Z,21.84
2019-06-20T20:10:53.786Z,21.84
2019-06-20T20:14:00.267Z,21.75
2019-06-20T20:17:06.748Z,21.68
2019-06-20T20:20:13.953Z,21.83
2019-06-20T20:23:20.539Z,21.87
2019-06-20T20:26:27.063Z,21.71
2019-06-20T20:29:36.773Z,21.71
2019-06-20T20:32:43.301Z,21.72
2019-06-20T20:35:49.840Z,21.58
2019-06-20T20:38:57.748Z,21.59
2019-06-20T20:42:05.476Z,21.52
2019-06-20T20:45:12.222Z,21.58
2019-06-20T20:48:18.646Z,21.44
2019-06-20T20:51:25.111Z,21.09
2019-06-20T20:54:31.609Z,21.26
2019-06-20T20:57:41.549Z,20.88
2019-06-20T21:01:01.841Z,21.05
2019-06-20T21:04:08.240Z,21.01
2019-06-20T21:07:14.743Z,21.06
2019-06-20T21:10:21.445Z,21.06
2019-06-20T21:13:27.901Z,20.94
2019-06-20T21:16:34.329Z,20.99
2019-06-20T21:19:40.764Z,20.83
2019-06-20T21:22:47.376Z,20.83
2019-06-20T21:25:53.844Z,20.80
2019-06-20T21:29:00.406Z,20.63
2019-06-20T21:32:06.876Z,20.68
2019-06-20T21:35:13.491Z,20.69
2019-06-20T21:38:22.043Z,20.40
2019-06-20T21:41:28.632Z,20.41
2019-06-20T21:44:35.167Z,20.40
2019-06-20T21:47:41.747Z,20.43
2019-06-20T21:50:48.193Z,20.32
2019-06-20T21:53:54.579Z,20.24
2019-06-20T21:57:01.593Z,20.35
2019-06-20T22:00:12.366Z,20.41
2019-06-20T22:03:20.192Z,20.07
2019-06-20T22:06:27.040Z,20.22
2019-06-20T22:09:33.531Z,20.13
2019-06-20T22:12:40.093Z,20.13
2019-06-20T22:15:46.635Z,20.14
2019-06-20T22:18:53.247Z,20.07
2019-06-20T22:21:59.917Z,20.09
2019-06-20T22:25:06.686Z,20.10
2019-06-20T22:28:14.116Z,20.21
2019-06-20T22:31:20.984Z,20.20
2019-06-20T22:34:27.444Z,20.22
2019-06-20T22:37:34.028Z,19.93
2019-06-20T22:40:40.490Z,20.00
2019-06-20T22:43:47.417Z,19.47
2019-06-20T22:46:53.909Z,19.15
2019-06-20T22:50:00.439Z,18.93
2019-06-20T22:53:06.909Z,19.38
2019-06-20T22:56:13.449Z,19.23
2019-06-20T22:59:19.953Z,19.40
2019-06-20T23:02:26.725Z,19.49
2019-06-20T23:05:33.172Z,18.90
2019-06-20T23:08:39.633Z,19.27
2019-06-20T23:11:46.152Z,19.09
2019-06-20T23:14:52.732Z,19.55
2019-06-20T23:17:59.190Z,19.51
2019-06-20T23:21:05.760Z,19.37
2019-06-20T23:24:12.240Z,19.27
2019-06-20T23:27:18.658Z,19.06
2019-06-20T23:30:25.189Z,18.98
2019-06-20T23:33:31.658Z,19.31
2019-06-20T23:36:38.251Z,19.16
2019-06-20T23:39:44.746Z,18.80
2019-06-20T23:42:51.337Z,19.16
2019-06-20T23:45:58.175Z,19.00
2019-06-20T23:49:04.670Z,18.68
2019-06-20T23:52:15.698Z,18.72
2019-06-20T23:55:22.151Z,18.56
2019-06-20T23:58:28.613Z,18.49
